sensor_id;sensor_type;location;lat;lon;timestamp;P1;durP1;ratioP1;P2;durP2;ratioP2
60233;SDS011;49514;43.538;-5.708;2022-10-14T00:01:05;26.33;;;9.30;;
60233;SDS011;49514;43.538;-5.708;2022-10-14T00:03:34;22.70;;;8.93;;
60233;SDS011;49514;43.538;-5.708;2022-10-14T00:06:03;20.60;;;7.43;;
60233;SDS011;49514;43.538;-5.708;2022-10-14T00:08:31;20.02;;;7.80;;
60233;SDS011;49514;43.538;-5.708;2022-10-14T00:11:02;22.05;;;6.13;;
60233;SDS011;49514;43.538;-5.708;2022-10-14T00:13:39;16.65;;;6.88;;
60233;SDS011;49514;43.538;-5.708;2022-10-14T00:16:13;12.70;;;5.63;;
60233;SDS011;49514;43.538;-5.708;2022-10-14T00:18:42;13.35;;;6.40;;
60233;SDS011;49514;43.538;-5.708;2022-10-14T00:21:09;12.75;;;5.22;;
60233;SDS011;49514;43.538;-5.708;2022-10-14T00:23:36;13.68;;;5.85;;
60233;SDS011;49514;43.538;-5.708;2022-10-14T00:26:03;12.70;;;6.10;;
60233;SDS011;49514;43.538;-5.708;2022-10-14T00:28:31;12.02;;;5.07;;
60233;SDS011;49514;43.538;-5.708;2022-10-14T00:30:59;12.48;;;5.22;;
60233;SDS011;49514;43.538;-5.708;2022-10-14T00:33:27;12.77;;;5.40;;
60233;SDS011;49514;43.538;-5.708;2022-10-14T00:35:57;15.33;;;6.13;;
60233;SDS011;49514;43.538;-5.708;2022-10-14T00:38:30;12.65;;;5.55;;
60233;SDS011;49514;43.538;-5.708;2022-10-14T00:40:56;13.07;;;5.15;;
60233;SDS011;49514;43.538;-5.708;2022-10-14T00:43:24;10.48;;;5.30;;
60233;SDS011;49514;43.538;-5.708;2022-10-14T00:45:51;17.98;;;6.20;;
60233;SDS011;49514;43.538;-5.708;2022-10-14T00:48:19;14.15;;;6.22;;
60233;SDS011;49514;43.538;-5.708;2022-10-14T00:50:51;15.93;;;6.72;;
60233;SDS011;49514;43.538;-5.708;2022-10-14T00:53:19;14.55;;;6.65;;
60233;SDS011;49514;43.538;-5.708;2022-10-14T00:55:48;14.48;;;6.55;;
60233;SDS011;49514;43.538;-5.708;2022-10-14T00:58:15;21.98;;;7.25;;
60233;SDS011;49514;43.538;-5.708;2022-10-14T01:00:42;18.17;;;6.80;;
60233;SDS011;49514;43.538;-5.708;2022-10-14T01:03:09;16.98;;;6.80;;
60233;SDS011;49514;43.538;-5.708;2022-10-14T01:06:28;15.13;;;6.78;;
60233;SDS011;49514;43.538;-5.708;2022-10-14T01:08:44;17.05;;;8.82;;
60233;SDS011;49514;43.538;-5.708;2022-10-14T01:11:23;23.47;;;9.43;;
60233;SDS011;49514;43.538;-5.708;2022-10-14T01:14:21;17.33;;;8.88;;
60233;SDS011;49514;43.538;-5.708;2022-10-14T01:22:58;15.52;;;6.07;;
60233;SDS011;49514;43.538;-5.708;2022-10-14T01:28:40;14.25;;;6.38;;
60233;SDS011;49514;43.538;-5.708;2022-10-14T01:31:21;13.45;;;6.57;;
60233;SDS011;49514;43.538;-5.708;2022-10-14T01:33:52;13.65;;;5.60;;
60233;SDS011;49514;43.538;-5.708;2022-10-14T01:39:20;11.27;;;5.00;;
60233;SDS011;49514;43.538;-5.708;2022-10-14T01:44:30;12.73;;;5.78;;
60233;SDS011;49514;43.538;-5.708;2022-10-14T01:46:59;13.23;;;5.47;;
60233;SDS011;49514;43.538;-5.708;2022-10-14T01:49:29;15.38;;;5.45;;
60233;SDS011;49514;43.538;-5.708;2022-10-14T01:52:02;13.57;;;5.28;;
60233;SDS011;49514;43.538;-5.708;2022-10-14T01:54:34;13.73;;;6.18;;
60233;SDS011;49514;43.538;-5.708;2022-10-14T01:57:07;27.25;;;7.90;;
60233;SDS011;49514;43.538;-5.708;2022-10-14T01:59:36;20.75;;;7.05;;
60233;SDS011;49514;43.538;-5.708;2022-10-14T02:02:06;23.30;;;7.35;;
60233;SDS011;49514;43.538;-5.708;2022-10-14T02:04:33;23.80;;;8.32;;
60233;SDS011;49514;43.538;-5.708;2022-10-14T02:18:04;19.45;;;6.18;;
60233;SDS011;49514;43.538;-5.708;2022-10-14T02:20:47;17.75;;;6.53;;
60233;SDS011;49514;43.538;-5.708;2022-10-14T02:23:40;14.75;;;6.10;;
60233;SDS011;49514;43.538;-5.708;2022-10-14T02:26:13;14.32;;;6.50;;
60233;SDS011;49514;43.538;-5.708;2022-10-14T02:28:41;21.80;;;6.85;;
60233;SDS011;49514;43.538;-5.708;2022-10-14T02:31:09;17.45;;;7.70;;
60233;SDS011;49514;43.538;-5.708;2022-10-14T02:33:42;15.98;;;6.60;;
60233;SDS011;49514;43.538;-5.708;2022-10-14T02:36:15;18.27;;;6.70;;
60233;SDS011;49514;43.538;-5.708;2022-10-14T02:38:47;14.57;;;6.35;;
60233;SDS011;49514;43.538;-5.708;2022-10-14T02:41:15;13.73;;;5.88;;
60233;SDS011;49514;43.538;-5.708;2022-10-14T02:43:44;11.63;;;5.40;;
60233;SDS011;49514;43.538;-5.708;2022-10-14T02:46:12;16.02;;;5.10;;
60233;SDS011;49514;43.538;-5.708;2022-10-14T02:48:39;11.88;;;5.00;;
60233;SDS011;49514;43.538;-5.708;2022-10-14T02:51:06;15.73;;;5.70;;
60233;SDS011;49514;43.538;-5.708;2022-10-14T02:53:32;13.82;;;5.90;;
60233;SDS011;49514;43.538;-5.708;2022-10-14T02:55:59;15.68;;;6.50;;
60233;SDS011;49514;43.538;-5.708;2022-10-14T02:58:26;20.90;;;5.80;;
60233;SDS011;49514;43.538;-5.708;2022-10-14T03:00:54;14.45;;;5.30;;
60233;SDS011;49514;43.538;-5.708;2022-10-14T03:03:20;12.95;;;5.05;;
60233;SDS011;49514;43.538;-5.708;2022-10-14T03:05:48;9.43;;;3.72;;
60233;SDS011;49514;43.538;-5.708;2022-10-14T03:08:15;7.90;;;3.67;;
60233;SDS011;49514;43.538;-5.708;2022-10-14T03:10:46;15.18;;;4.53;;
60233;SDS011;49514;43.538;-5.708;2022-10-14T03:13:14;12.20;;;4.80;;
60233;SDS011;49514;43.538;-5.708;2022-10-14T03:15:48;16.40;;;4.50;;
60233;SDS011;49514;43.538;-5.708;2022-10-14T03:18:17;15.73;;;5.10;;
60233;SDS011;49514;43.538;-5.708;2022-10-14T03:20:46;14.35;;;5.13;;
60233;SDS011;49514;43.538;-5.708;2022-10-14T03:23:18;14.07;;;4.82;;
60233;SDS011;49514;43.538;-5.708;2022-10-14T03:25:48;11.55;;;4.95;;
60233;SDS011;49514;43.538;-5.708;2022-10-14T03:28:25;15.55;;;4.95;;
60233;SDS011;49514;43.538;-5.708;2022-10-14T03:31:00;11.43;;;4.75;;
60233;SDS011;49514;43.538;-5.708;2022-10-14T03:33:47;10.77;;;4.85;;
60233;SDS011;49514;43.538;-5.708;2022-10-14T03:36:17;9.98;;;4.82;;
60233;SDS011;49514;43.538;-5.708;2022-10-14T03:38:46;8.13;;;4.63;;
60233;SDS011;49514;43.538;-5.708;2022-10-14T03:41:39;14.10;;;5.07;;
60233;SDS011;49514;43.538;-5.708;2022-10-14T03:44:07;9.75;;;4.63;;
60233;SDS011;49514;43.538;-5.708;2022-10-14T03:46:36;10.15;;;5.25;;
60233;SDS011;49514;43.538;-5.708;2022-10-14T03:49:03;12.23;;;5.40;;
60233;SDS011;49514;43.538;-5.708;2022-10-14T03:51:31;10.17;;;5.00;;
60233;SDS011;49514;43.538;-5.708;2022-10-14T03:54:11;8.02;;;4.07;;
60233;SDS011;49514;43.538;-5.708;2022-10-14T03:56:38;9.70;;;3.80;;
60233;SDS011;49514;43.538;-5.708;2022-10-14T03:59:05;6.78;;;3.33;;
60233;SDS011;49514;43.538;-5.708;2022-10-14T04:01:32;10.80;;;3.50;;
60233;SDS011;49514;43.538;-5.708;2022-10-14T04:04:10;10.05;;;3.53;;
60233;SDS011;49514;43.538;-5.708;2022-10-14T04:06:36;5.45;;;3.10;;
60233;SDS011;49514;43.538;-5.708;2022-10-14T04:09:05;10.77;;;3.22;;
60233;SDS011;49514;43.538;-5.708;2022-10-14T04:11:36;6.28;;;2.70;;
60233;SDS011;49514;43.538;-5.708;2022-10-14T04:14:07;6.18;;;2.97;;
60233;SDS011;49514;43.538;-5.708;2022-10-14T04:16:40;4.88;;;2.88;;
60233;SDS011;49514;43.538;-5.708;2022-10-14T04:19:11;10.77;;;3.13;;
60233;SDS011;49514;43.538;-5.708;2022-10-14T04:21:40;6.15;;;3.20;;
60233;SDS011;49514;43.538;-5.708;2022-10-14T04:24:08;10.60;;;2.85;;
60233;SDS011;49514;43.538;-5.708;2022-10-14T04:26:41;5.05;;;2.80;;
60233;SDS011;49514;43.538;-5.708;2022-10-14T04:29:14;5.93;;;2.70;;
60233;SDS011;49514;43.538;-5.708;2022-10-14T04:31:51;6.60;;;3.00;;
60233;SDS011;49514;43.538;-5.708;2022-10-14T04:34:18;7.70;;;2.53;;
60233;SDS011;49514;43.538;-5.708;2022-10-14T04:36:45;11.73;;;3.20;;
60233;SDS011;49514;43.538;-5.708;2022-10-14T04:39:41;11.45;;;3.90;;
60233;SDS011;49514;43.538;-5.708;2022-10-14T04:42:08;6.47;;;3.10;;
60233;SDS011;49514;43.538;-5.708;2022-10-14T04:44:35;9.93;;;3.70;;
60233;SDS011;49514;43.538;-5.708;2022-10-14T04:47:03;8.68;;;3.90;;
60233;SDS011;49514;43.538;-5.708;2022-10-14T04:49:30;8.82;;;3.67;;
60233;SDS011;49514;43.538;-5.708;2022-10-14T04:52:08;13.90;;;4.35;;
60233;SDS011;49514;43.538;-5.708;2022-10-14T04:54:40;19.92;;;3.90;;
60233;SDS011;49514;43.538;-5.708;2022-10-14T04:57:06;12.23;;;3.90;;
60233;SDS011;49514;43.538;-5.708;2022-10-14T04:59:36;6.63;;;3.45;;
60233;SDS011;49514;43.538;-5.708;2022-10-14T05:02:20;15.90;;;5.25;;
60233;SDS011;49514;43.538;-5.708;2022-10-14T05:04:55;9.60;;;3.90;;
60233;SDS011;49514;43.538;-5.708;2022-10-14T05:07:22;13.45;;;4.50;;
60233;SDS011;49514;43.538;-5.708;2022-10-14T05:09:55;7.90;;;3.70;;
60233;SDS011;49514;43.538;-5.708;2022-10-14T05:12:31;13.00;;;4.43;;
60233;SDS011;49514;43.538;-5.708;2022-10-14T05:15:00;20.52;;;5.05;;
60233;SDS011;49514;43.538;-5.708;2022-10-14T05:17:35;15.40;;;5.32;;
60233;SDS011;49514;43.538;-5.708;2022-10-14T05:20:03;13.68;;;5.03;;
60233;SDS011;49514;43.538;-5.708;2022-10-14T05:22:33;25.27;;;5.28;;
60233;SDS011;49514;43.538;-5.708;2022-10-14T05:25:00;12.85;;;5.10;;
60233;SDS011;49514;43.538;-5.708;2022-10-14T05:27:27;17.50;;;5.25;;
60233;SDS011;49514;43.538;-5.708;2022-10-14T05:29:54;15.70;;;4.75;;
60233;SDS011;49514;43.538;-5.708;2022-10-14T05:32:20;27.05;;;8.07;;
60233;SDS011;49514;43.538;-5.708;2022-10-14T05:34:50;32.70;;;8.10;;
60233;SDS011;49514;43.538;-5.708;2022-10-14T05:37:25;24.35;;;5.18;;
60233;SDS011;49514;43.538;-5.708;2022-10-14T05:39:53;27.33;;;5.03;;
60233;SDS011;49514;43.538;-5.708;2022-10-14T05:42:23;29.88;;;6.65;;
60233;SDS011;49514;43.538;-5.708;2022-10-14T05:44:53;42.17;;;8.93;;
60233;SDS011;49514;43.538;-5.708;2022-10-14T05:47:20;50.05;;;10.98;;
60233;SDS011;49514;43.538;-5.708;2022-10-14T05:49:51;46.03;;;10.43;;
60233;SDS011;49514;43.538;-5.708;2022-10-14T05:52:17;29.35;;;6.70;;
60233;SDS011;49514;43.538;-5.708;2022-10-14T05:54:44;28.65;;;8.35;;
60233;SDS011;49514;43.538;-5.708;2022-10-14T05:57:15;30.90;;;9.23;;
60233;SDS011;49514;43.538;-5.708;2022-10-14T05:59:41;40.72;;;9.50;;
60233;SDS011;49514;43.538;-5.708;2022-10-14T06:02:08;33.55;;;8.43;;
60233;SDS011;49514;43.538;-5.708;2022-10-14T06:04:35;28.77;;;6.55;;
60233;SDS011;49514;43.538;-5.708;2022-10-14T06:07:07;33.35;;;7.72;;
60233;SDS011;49514;43.538;-5.708;2022-10-14T06:09:37;33.10;;;8.52;;
60233;SDS011;49514;43.538;-5.708;2022-10-14T06:12:04;40.45;;;9.63;;
60233;SDS011;49514;43.538;-5.708;2022-10-14T06:14:32;34.80;;;9.50;;
60233;SDS011;49514;43.538;-5.708;2022-10-14T06:16:59;27.77;;;9.38;;
60233;SDS011;49514;43.538;-5.708;2022-10-14T06:19:25;33.05;;;10.07;;
60233;SDS011;49514;43.538;-5.708;2022-10-14T06:21:52;26.58;;;8.00;;
60233;SDS011;49514;43.538;-5.708;2022-10-14T06:24:19;27.90;;;9.48;;
60233;SDS011;49514;43.538;-5.708;2022-10-14T06:26:46;29.98;;;8.82;;
60233;SDS011;49514;43.538;-5.708;2022-10-14T06:29:13;22.30;;;7.25;;
60233;SDS011;49514;43.538;-5.708;2022-10-14T06:31:40;22.45;;;6.30;;
60233;SDS011;49514;43.538;-5.708;2022-10-14T06:34:07;22.33;;;6.00;;
60233;SDS011;49514;43.538;-5.708;2022-10-14T06:36:34;18.65;;;6.07;;
60233;SDS011;49514;43.538;-5.708;2022-10-14T06:39:02;23.27;;;6.25;;
60233;SDS011;49514;43.538;-5.708;2022-10-14T06:41:30;27.75;;;7.22;;
60233;SDS011;49514;43.538;-5.708;2022-10-14T06:43:57;26.65;;;6.97;;
60233;SDS011;49514;43.538;-5.708;2022-10-14T06:46:24;21.52;;;5.88;;
60233;SDS011;49514;43.538;-5.708;2022-10-14T06:48:50;16.77;;;6.03;;
60233;SDS011;49514;43.538;-5.708;2022-10-14T06:51:17;29.85;;;7.75;;
60233;SDS011;49514;43.538;-5.708;2022-10-14T06:53:44;31.25;;;7.72;;
60233;SDS011;49514;43.538;-5.708;2022-10-14T06:56:10;33.08;;;6.55;;
60233;SDS011;49514;43.538;-5.708;2022-10-14T06:58:37;20.10;;;5.45;;
60233;SDS011;49514;43.538;-5.708;2022-10-14T07:01:04;18.27;;;5.38;;
60233;SDS011;49514;43.538;-5.708;2022-10-14T07:03:36;13.50;;;4.30;;
60233;SDS011;49514;43.538;-5.708;2022-10-14T07:06:04;15.43;;;4.57;;
60233;SDS011;49514;43.538;-5.708;2022-10-14T07:08:32;22.75;;;6.72;;
60233;SDS011;49514;43.538;-5.708;2022-10-14T07:10:59;25.23;;;6.95;;
60233;SDS011;49514;43.538;-5.708;2022-10-14T07:13:25;44.72;;;11.60;;
60233;SDS011;49514;43.538;-5.708;2022-10-14T07:15:52;35.25;;;7.70;;
60233;SDS011;49514;43.538;-5.708;2022-10-14T07:18:19;13.95;;;4.75;;
60233;SDS011;49514;43.538;-5.708;2022-10-14T07:20:46;26.08;;;5.85;;
60233;SDS011;49514;43.538;-5.708;2022-10-14T07:23:13;21.60;;;5.22;;
60233;SDS011;49514;43.538;-5.708;2022-10-14T07:25:40;12.85;;;4.95;;
60233;SDS011;49514;43.538;-5.708;2022-10-14T07:28:06;14.25;;;4.85;;
60233;SDS011;49514;43.538;-5.708;2022-10-14T07:30:33;20.00;;;6.88;;
60233;SDS011;49514;43.538;-5.708;2022-10-14T07:33:00;23.65;;;7.07;;
60233;SDS011;49514;43.538;-5.708;2022-10-14T07:35:27;20.60;;;6.45;;
60233;SDS011;49514;43.538;-5.708;2022-10-14T07:37:56;19.67;;;4.80;;
60233;SDS011;49514;43.538;-5.708;2022-10-14T07:40:24;17.38;;;5.32;;
60233;SDS011;49514;43.538;-5.708;2022-10-14T07:42:52;14.98;;;5.20;;
60233;SDS011;49514;43.538;-5.708;2022-10-14T07:45:19;15.60;;;5.78;;
60233;SDS011;49514;43.538;-5.708;2022-10-14T07:47:46;20.83;;;6.28;;
60233;SDS011;49514;43.538;-5.708;2022-10-14T07:50:14;14.27;;;5.40;;
60233;SDS011;49514;43.538;-5.708;2022-10-14T07:52:41;14.13;;;4.32;;
60233;SDS011;49514;43.538;-5.708;2022-10-14T07:55:08;20.65;;;7.22;;
60233;SDS011;49514;43.538;-5.708;2022-10-14T07:57:35;25.60;;;7.50;;
60233;SDS011;49514;43.538;-5.708;2022-10-14T08:00:02;25.30;;;7.70;;
60233;SDS011;49514;43.538;-5.708;2022-10-14T08:02:37;21.52;;;6.53;;
60233;SDS011;49514;43.538;-5.708;2022-10-14T08:05:04;27.63;;;9.30;;
60233;SDS011;49514;43.538;-5.708;2022-10-14T08:07:31;19.30;;;6.25;;
60233;SDS011;49514;43.538;-5.708;2022-10-14T08:09:58;22.02;;;6.25;;
60233;SDS011;49514;43.538;-5.708;2022-10-14T08:12:25;23.67;;;6.28;;
60233;SDS011;49514;43.538;-5.708;2022-10-14T08:14:53;19.27;;;5.90;;
60233;SDS011;49514;43.538;-5.708;2022-10-14T08:17:22;12.55;;;4.93;;
60233;SDS011;49514;43.538;-5.708;2022-10-14T08:19:49;20.30;;;5.40;;
60233;SDS011;49514;43.538;-5.708;2022-10-14T08:22:16;15.60;;;4.95;;
60233;SDS011;49514;43.538;-5.708;2022-10-14T08:24:42;16.48;;;5.90;;
60233;SDS011;49514;43.538;-5.708;2022-10-14T08:27:09;19.33;;;7.88;;
60233;SDS011;49514;43.538;-5.708;2022-10-14T08:29:36;20.52;;;7.03;;
60233;SDS011;49514;43.538;-5.708;2022-10-14T08:32:03;17.80;;;5.10;;
60233;SDS011;49514;43.538;-5.708;2022-10-14T08:34:29;15.38;;;4.90;;
60233;SDS011;49514;43.538;-5.708;2022-10-14T08:36:56;12.20;;;3.50;;
60233;SDS011;49514;43.538;-5.708;2022-10-14T08:39:23;15.63;;;4.10;;
60233;SDS011;49514;43.538;-5.708;2022-10-14T08:45:07;16.15;;;3.40;;
60233;SDS011;49514;43.538;-5.708;2022-10-14T08:47:41;10.55;;;3.15;;
60233;SDS011;49514;43.538;-5.708;2022-10-14T08:53:01;8.63;;;3.78;;
60233;SDS011;49514;43.538;-5.708;2022-10-14T08:55:49;11.15;;;3.40;;
60233;SDS011;49514;43.538;-5.708;2022-10-14T09:00:53;13.02;;;4.28;;
60233;SDS011;49514;43.538;-5.708;2022-10-14T09:03:22;12.63;;;3.42;;
60233;SDS011;49514;43.538;-5.708;2022-10-14T09:06:03;12.75;;;3.70;;
60233;SDS011;49514;43.538;-5.708;2022-10-14T09:08:34;15.50;;;3.85;;
60233;SDS011;49514;43.538;-5.708;2022-10-14T09:11:06;8.38;;;2.90;;
60233;SDS011;49514;43.538;-5.708;2022-10-14T09:13:54;5.93;;;2.80;;
60233;SDS011;49514;43.538;-5.708;2022-10-14T09:16:29;14.68;;;3.63;;
60233;SDS011;49514;43.538;-5.708;2022-10-14T09:19:02;16.50;;;4.95;;
60233;SDS011;49514;43.538;-5.708;2022-10-14T09:21:32;13.95;;;4.70;;
60233;SDS011;49514;43.538;-5.708;2022-10-14T09:24:14;8.30;;;2.88;;
60233;SDS011;49514;43.538;-5.708;2022-10-14T09:26:50;13.45;;;4.38;;
60233;SDS011;49514;43.538;-5.708;2022-10-14T09:29:22;9.68;;;3.13;;
60233;SDS011;49514;43.538;-5.708;2022-10-14T09:31:52;6.32;;;2.50;;
60233;SDS011;49514;43.538;-5.708;2022-10-14T09:34:31;9.15;;;3.22;;
60233;SDS011;49514;43.538;-5.708;2022-10-14T09:37:26;15.73;;;4.57;;
60233;SDS011;49514;43.538;-5.708;2022-10-14T09:45:21;6.43;;;2.35;;
60233;SDS011;49514;43.538;-5.708;2022-10-14T09:50:31;10.52;;;3.05;;
60233;SDS011;49514;43.538;-5.708;2022-10-14T09:53:06;5.65;;;2.50;;
60233;SDS011;49514;43.538;-5.708;2022-10-14T10:01:15;5.60;;;2.80;;
60233;SDS011;49514;43.538;-5.708;2022-10-14T10:03:44;18.83;;;7.45;;
60233;SDS011;49514;43.538;-5.708;2022-10-14T10:06:17;18.35;;;10.13;;
60233;SDS011;49514;43.538;-5.708;2022-10-14T10:08:55;14.95;;;6.20;;
60233;SDS011;49514;43.538;-5.708;2022-10-14T10:14:14;9.00;;;4.82;;
60233;SDS011;49514;43.538;-5.708;2022-10-14T10:16:41;12.68;;;3.78;;
60233;SDS011;49514;43.538;-5.708;2022-10-14T10:19:27;10.90;;;4.40;;
60233;SDS011;49514;43.538;-5.708;2022-10-14T10:27:35;8.27;;;3.40;;
60233;SDS011;49514;43.538;-5.708;2022-10-14T10:32:46;9.55;;;3.47;;
60233;SDS011;49514;43.538;-5.708;2022-10-14T10:35:57;9.52;;;3.15;;
60233;SDS011;49514;43.538;-5.708;2022-10-14T10:55:27;6.72;;;1.70;;
60233;SDS011;49514;43.538;-5.708;2022-10-14T10:58:09;9.20;;;1.60;;
60233;SDS011;49514;43.538;-5.708;2022-10-14T11:01:00;4.40;;;1.40;;
60233;SDS011;49514;43.538;-5.708;2022-10-14T11:06:29;4.75;;;1.90;;
60233;SDS011;49514;43.538;-5.708;2022-10-14T11:09:34;9.38;;;1.90;;
60233;SDS011;49514;43.538;-5.708;2022-10-14T11:12:49;3.17;;;1.50;;
60233;SDS011;49514;43.538;-5.708;2022-10-14T11:15:26;6.95;;;1.90;;
60233;SDS011;49514;43.538;-5.708;2022-10-14T11:18:01;6.73;;;2.20;;
60233;SDS011;49514;43.538;-5.708;2022-10-14T11:20:51;8.88;;;2.22;;
60233;SDS011;49514;43.538;-5.708;2022-10-14T11:23:46;11.63;;;1.90;;
60233;SDS011;49514;43.538;-5.708;2022-10-14T11:37:17;3.25;;;1.00;;
60233;SDS011;49514;43.538;-5.708;2022-10-14T11:40:12;5.20;;;1.23;;
60233;SDS011;49514;43.538;-5.708;2022-10-14T11:42:48;3.45;;;1.00;;
60233;SDS011;49514;43.538;-5.708;2022-10-14T11:45:39;3.72;;;1.27;;
60233;SDS011;49514;43.538;-5.708;2022-10-14T11:50:54;4.20;;;1.10;;
60233;SDS011;49514;43.538;-5.708;2022-10-14T11:58:55;1.90;;;0.70;;
60233;SDS011;49514;43.538;-5.708;2022-10-14T13:26:21;2.95;;;0.70;;
60233;SDS011;49514;43.538;-5.708;2022-10-14T13:56:27;1.40;;;0.60;;
60233;SDS011;49514;43.538;-5.708;2022-10-14T13:58:55;4.18;;;0.70;;
60233;SDS011;49514;43.538;-5.708;2022-10-14T14:03:56;2.63;;;0.63;;
60233;SDS011;49514;43.538;-5.708;2022-10-14T14:06:24;4.03;;;0.73;;
60233;SDS011;49514;43.538;-5.708;2022-10-14T14:08:56;2.80;;;0.70;;
60233;SDS011;49514;43.538;-5.708;2022-10-14T14:14:16;2.40;;;0.60;;
60233;SDS011;49514;43.538;-5.708;2022-10-14T14:16:53;2.65;;;0.70;;
60233;SDS011;49514;43.538;-5.708;2022-10-14T14:56:49;4.95;;;1.08;;
60233;SDS011;49514;43.538;-5.708;2022-10-14T14:59:37;2.03;;;0.52;;
60233;SDS011;49514;43.538;-5.708;2022-10-14T15:02:11;1.45;;;0.70;;
60233;SDS011;49514;43.538;-5.708;2022-10-14T15:04:57;2.03;;;0.50;;
60233;SDS011;49514;43.538;-5.708;2022-10-14T15:10:00;2.35;;;0.70;;
60233;SDS011;49514;43.538;-5.708;2022-10-14T15:12:35;9.15;;;1.05;;
60233;SDS011;49514;43.538;-5.708;2022-10-14T15:18:12;5.38;;;1.02;;
60233;SDS011;49514;43.538;-5.708;2022-10-14T15:20:45;2.33;;;0.88;;
60233;SDS011;49514;43.538;-5.708;2022-10-14T15:30:53;3.10;;;0.80;;
60233;SDS011;49514;43.538;-5.708;2022-10-14T15:35:59;2.53;;;0.80;;
60233;SDS011;49514;43.538;-5.708;2022-10-14T15:38:27;3.67;;;0.97;;
60233;SDS011;49514;43.538;-5.708;2022-10-14T15:40:55;5.57;;;0.85;;
60233;SDS011;49514;43.538;-5.708;2022-10-14T15:43:22;2.45;;;0.63;;
60233;SDS011;49514;43.538;-5.708;2022-10-14T15:48:40;3.28;;;0.98;;
60233;SDS011;49514;43.538;-5.708;2022-10-14T15:56:10;4.80;;;0.88;;
60233;SDS011;49514;43.538;-5.708;2022-10-14T16:08:27;3.70;;;0.98;;
60233;SDS011;49514;43.538;-5.708;2022-10-14T16:18:17;3.75;;;1.17;;
60233;SDS011;49514;43.538;-5.708;2022-10-14T16:23:13;4.55;;;1.40;;
60233;SDS011;49514;43.538;-5.708;2022-10-14T16:25:44;3.35;;;1.15;;
60233;SDS011;49514;43.538;-5.708;2022-10-14T16:28:17;5.90;;;1.67;;
60233;SDS011;49514;43.538;-5.708;2022-10-14T16:30:45;12.00;;;2.17;;
60233;SDS011;49514;43.538;-5.708;2022-10-14T16:33:16;6.78;;;2.10;;
60233;SDS011;49514;43.538;-5.708;2022-10-14T16:35:48;6.32;;;1.83;;
60233;SDS011;49514;43.538;-5.708;2022-10-14T16:38:18;3.28;;;1.20;;
60233;SDS011;49514;43.538;-5.708;2022-10-14T16:40:55;5.20;;;1.25;;
60233;SDS011;49514;43.538;-5.708;2022-10-14T16:43:23;5.10;;;1.27;;
60233;SDS011;49514;43.538;-5.708;2022-10-14T16:45:51;4.60;;;1.30;;
60233;SDS011;49514;43.538;-5.708;2022-10-14T16:48:18;3.55;;;1.25;;
60233;SDS011;49514;43.538;-5.708;2022-10-14T16:50:48;4.10;;;1.20;;
60233;SDS011;49514;43.538;-5.708;2022-10-14T16:53:16;5.65;;;1.25;;
60233;SDS011;49514;43.538;-5.708;2022-10-14T16:56:02;5.05;;;1.17;;
60233;SDS011;49514;43.538;-5.708;2022-10-14T16:58:49;4.30;;;1.35;;
60233;SDS011;49514;43.538;-5.708;2022-10-14T17:01:17;5.65;;;1.58;;
60233;SDS011;49514;43.538;-5.708;2022-10-14T17:03:44;4.25;;;1.10;;
60233;SDS011;49514;43.538;-5.708;2022-10-14T17:06:11;5.40;;;1.10;;
60233;SDS011;49514;43.538;-5.708;2022-10-14T17:08:40;5.30;;;1.30;;
60233;SDS011;49514;43.538;-5.708;2022-10-14T17:11:08;4.32;;;1.38;;
60233;SDS011;49514;43.538;-5.708;2022-10-14T17:13:35;6.00;;;1.60;;
60233;SDS011;49514;43.538;-5.708;2022-10-14T17:16:03;3.97;;;1.25;;
60233;SDS011;49514;43.538;-5.708;2022-10-14T17:18:31;4.00;;;1.08;;
60233;SDS011;49514;43.538;-5.708;2022-10-14T17:21:08;5.90;;;0.90;;
60233;SDS011;49514;43.538;-5.708;2022-10-14T17:23:37;2.95;;;0.90;;
60233;SDS011;49514;43.538;-5.708;2022-10-14T17:26:08;6.78;;;1.30;;
60233;SDS011;49514;43.538;-5.708;2022-10-14T17:28:38;6.32;;;1.48;;
60233;SDS011;49514;43.538;-5.708;2022-10-14T17:31:12;4.53;;;0.95;;
60233;SDS011;49514;43.538;-5.708;2022-10-14T17:33:41;7.13;;;1.23;;
60233;SDS011;49514;43.538;-5.708;2022-10-14T17:36:16;3.53;;;1.30;;
60233;SDS011;49514;43.538;-5.708;2022-10-14T17:38:44;5.47;;;1.20;;
60233;SDS011;49514;43.538;-5.708;2022-10-14T17:41:13;5.20;;;1.23;;
60233;SDS011;49514;43.538;-5.708;2022-10-14T17:43:40;9.27;;;1.67;;
60233;SDS011;49514;43.538;-5.708;2022-10-14T17:46:07;6.40;;;1.73;;
60233;SDS011;49514;43.538;-5.708;2022-10-14T17:48:39;6.88;;;1.60;;
60233;SDS011;49514;43.538;-5.708;2022-10-14T17:51:10;3.42;;;1.10;;
60233;SDS011;49514;43.538;-5.708;2022-10-14T17:53:38;6.55;;;1.73;;
60233;SDS011;49514;43.538;-5.708;2022-10-14T17:56:06;7.80;;;2.65;;
60233;SDS011;49514;43.538;-5.708;2022-10-14T17:58:34;15.05;;;3.15;;
60233;SDS011;49514;43.538;-5.708;2022-10-14T18:01:01;6.95;;;2.90;;
60233;SDS011;49514;43.538;-5.708;2022-10-14T18:03:36;10.65;;;3.00;;
60233;SDS011;49514;43.538;-5.708;2022-10-14T18:06:08;12.35;;;3.17;;
60233;SDS011;49514;43.538;-5.708;2022-10-14T18:08:39;9.40;;;4.07;;
60233;SDS011;49514;43.538;-5.708;2022-10-14T18:11:07;9.93;;;2.88;;
60233;SDS011;49514;43.538;-5.708;2022-10-14T18:13:35;11.52;;;2.70;;
60233;SDS011;49514;43.538;-5.708;2022-10-14T18:16:09;9.70;;;2.10;;
60233;SDS011;49514;43.538;-5.708;2022-10-14T18:18:39;9.85;;;2.22;;
60233;SDS011;49514;43.538;-5.708;2022-10-14T18:21:07;7.22;;;1.80;;
60233;SDS011;49514;43.538;-5.708;2022-10-14T18:23:35;8.68;;;1.90;;
60233;SDS011;49514;43.538;-5.708;2022-10-14T18:26:13;7.53;;;1.50;;
60233;SDS011;49514;43.538;-5.708;2022-10-14T18:28:43;4.97;;;1.52;;
60233;SDS011;49514;43.538;-5.708;2022-10-14T18:31:14;2.47;;;1.10;;
60233;SDS011;49514;43.538;-5.708;2022-10-14T18:33:45;5.60;;;1.33;;
60233;SDS011;49514;43.538;-5.708;2022-10-14T18:36:14;7.93;;;1.58;;
60233;SDS011;49514;43.538;-5.708;2022-10-14T18:38:49;6.93;;;1.42;;
60233;SDS011;49514;43.538;-5.708;2022-10-14T18:41:28;6.00;;;1.80;;
60233;SDS011;49514;43.538;-5.708;2022-10-14T18:43:55;4.72;;;1.50;;
60233;SDS011;49514;43.538;-5.708;2022-10-14T18:46:24;8.13;;;1.38;;
60233;SDS011;49514;43.538;-5.708;2022-10-14T18:48:53;5.88;;;1.42;;
60233;SDS011;49514;43.538;-5.708;2022-10-14T18:51:24;7.72;;;1.35;;
60233;SDS011;49514;43.538;-5.708;2022-10-14T18:53:52;3.70;;;1.35;;
60233;SDS011;49514;43.538;-5.708;2022-10-14T18:56:22;6.22;;;1.45;;
60233;SDS011;49514;43.538;-5.708;2022-10-14T18:58:55;7.43;;;1.38;;
60233;SDS011;49514;43.538;-5.708;2022-10-14T19:01:26;5.45;;;1.30;;
60233;SDS011;49514;43.538;-5.708;2022-10-14T19:03:54;3.70;;;1.10;;
60233;SDS011;49514;43.538;-5.708;2022-10-14T19:06:22;7.50;;;1.50;;
60233;SDS011;49514;43.538;-5.708;2022-10-14T19:08:50;6.60;;;1.45;;
60233;SDS011;49514;43.538;-5.708;2022-10-14T19:11:21;4.68;;;1.48;;
60233;SDS011;49514;43.538;-5.708;2022-10-14T19:13:51;7.50;;;1.95;;
60233;SDS011;49514;43.538;-5.708;2022-10-14T19:16:21;6.57;;;2.05;;
60233;SDS011;49514;43.538;-5.708;2022-10-14T19:18:55;5.53;;;1.63;;
60233;SDS011;49514;43.538;-5.708;2022-10-14T19:21:26;5.05;;;1.17;;
60233;SDS011;49514;43.538;-5.708;2022-10-14T19:23:58;5.43;;;1.52;;
60233;SDS011;49514;43.538;-5.708;2022-10-14T19:26:26;5.60;;;1.80;;
60233;SDS011;49514;43.538;-5.708;2022-10-14T19:28:58;8.88;;;2.10;;
60233;SDS011;49514;43.538;-5.708;2022-10-14T19:31:28;10.40;;;2.78;;
60233;SDS011;49514;43.538;-5.708;2022-10-14T19:33:58;15.27;;;3.40;;
60233;SDS011;49514;43.538;-5.708;2022-10-14T19:36:26;13.23;;;4.03;;
60233;SDS011;49514;43.538;-5.708;2022-10-14T19:38:54;9.80;;;3.08;;
60233;SDS011;49514;43.538;-5.708;2022-10-14T19:41:26;12.70;;;3.35;;
60233;SDS011;49514;43.538;-5.708;2022-10-14T19:43:55;12.65;;;3.03;;
60233;SDS011;49514;43.538;-5.708;2022-10-14T19:46:23;11.95;;;3.28;;